sensor_id;sensor_type;location;lat;lon;timestamp;pressure;altitude;pressure_sealevel;temperature;humidity
75359;BME280;64046;51.978;5.934;2023-01-13T00:01:17;100198.59;;;15.12;95.10
75359;BME280;64046;51.978;5.934;2023-01-13T00:03:47;100201.00;;;14.91;94.74
75359;BME280;64046;51.978;5.934;2023-01-13T00:06:19;100190.94;;;14.96;93.24
75359;BME280;64046;51.978;5.934;2023-01-13T00:08:51;100214.06;;;14.92;91.88
75359;BME280;64046;51.978;5.934;2023-01-13T00:11:21;100205.84;;;14.84;90.72
75359;BME280;64046;51.978;5.934;2023-01-13T00:13:51;100215.28;;;14.75;90.60
75359;BME280;64046;51.978;5.934;2023-01-13T00:16:23;100211.66;;;14.89;89.23
75359;BME280;64046;51.978;5.934;2023-01-13T00:18:52;100209.22;;;14.62;88.45
75359;BME280;64046;51.978;5.934;2023-01-13T00:21:22;100217.63;;;14.67;88.31
75359;BME280;64046;51.978;5.934;2023-01-13T00:23:52;100214.56;;;14.60;88.34
75359;BME280;64046;51.978;5.934;2023-01-13T00:26:24;100213.59;;;14.61;88.01
75359;BME280;64046;51.978;5.934;2023-01-13T00:28:57;100209.81;;;14.52;88.10
75359;BME280;64046;51.978;5.934;2023-01-13T00:31:28;100214.38;;;14.63;87.38
75359;BME280;64046;51.978;5.934;2023-01-13T00:33:59;100210.78;;;14.51;87.75
75359;BME280;64046;51.978;5.934;2023-01-13T00:36:28;100210.47;;;14.43;87.95
75359;BME280;64046;51.978;5.934;2023-01-13T00:38:58;100208.56;;;14.32;88.28
75359;BME280;64046;51.978;5.934;2023-01-13T00:41:28;100201.31;;;14.36;88.42
75359;BME280;64046;51.978;5.934;2023-01-13T00:44:17;100209.94;;;14.38;88.21
75359;BME280;64046;51.978;5.934;2023-01-13T00:46:46;100210.44;;;14.56;87.63
75359;BME280;64046;51.978;5.934;2023-01-13T00:49:16;100216.25;;;14.35;88.47
75359;BME280;64046;51.978;5.934;2023-01-13T00:51:45;100212.25;;;14.30;88.27
75359;BME280;64046;51.978;5.934;2023-01-13T00:54:14;100214.91;;;14.30;88.59
75359;BME280;64046;51.978;5.934;2023-01-13T00:56:43;100209.75;;;14.28;88.87
75359;BME280;64046;51.978;5.934;2023-01-13T00:59:12;100215.22;;;14.25;88.86
75359;BME280;64046;51.978;5.934;2023-01-13T01:01:42;100209.44;;;14.20;89.60
75359;BME280;64046;51.978;5.934;2023-01-13T01:04:13;100215.97;;;14.40;88.86
75359;BME280;64046;51.978;5.934;2023-01-13T01:06:42;100208.69;;;14.18;89.07
75359;BME280;64046;51.978;5.934;2023-01-13T01:09:12;100190.47;;;14.28;89.37
75359;BME280;64046;51.978;5.934;2023-01-13T01:11:42;100192.56;;;14.23;89.46
75359;BME280;64046;51.978;5.934;2023-01-13T01:14:12;100196.06;;;14.23;89.01
75359;BME280;64046;51.978;5.934;2023-01-13T01:16:41;100195.31;;;14.21;88.56
75359;BME280;64046;51.978;5.934;2023-01-13T01:19:13;100198.56;;;14.38;87.92
75359;BME280;64046;51.978;5.934;2023-01-13T01:21:43;100191.31;;;14.15;87.40
75359;BME280;64046;51.978;5.934;2023-01-13T01:24:12;100198.47;;;14.13;86.87
75359;BME280;64046;51.978;5.934;2023-01-13T01:26:42;100196.19;;;14.09;87.38
75359;BME280;64046;51.978;5.934;2023-01-13T01:29:12;100188.66;;;14.15;87.12
75359;BME280;64046;51.978;5.934;2023-01-13T01:31:42;100191.84;;;14.08;86.69
75359;BME280;64046;51.978;5.934;2023-01-13T01:34:14;100192.38;;;14.26;86.19
75359;BME280;64046;51.978;5.934;2023-01-13T01:36:43;100190.91;;;14.09;86.52
75359;BME280;64046;51.978;5.934;2023-01-13T01:39:12;100187.41;;;14.08;86.10
75359;BME280;64046;51.978;5.934;2023-01-13T01:41:42;100188.16;;;14.10;86.43
75359;BME280;64046;51.978;5.934;2023-01-13T01:44:55;100188.34;;;14.46;84.31
75359;BME280;64046;51.978;5.934;2023-01-13T01:47:25;100201.94;;;14.27;85.82
75359;BME280;64046;51.978;5.934;2023-01-13T01:49:57;100195.50;;;14.31;85.69
75359;BME280;64046;51.978;5.934;2023-01-13T01:52:30;100196.78;;;14.25;85.60
75359;BME280;64046;51.978;5.934;2023-01-13T01:55:04;100195.84;;;14.26;85.20
75359;BME280;64046;51.978;5.934;2023-01-13T01:57:38;100212.91;;;14.21;85.69
75359;BME280;64046;51.978;5.934;2023-01-13T02:00:10;100209.13;;;14.12;86.16
75359;BME280;64046;51.978;5.934;2023-01-13T02:02:42;100203.09;;;14.10;86.27
75359;BME280;64046;51.978;5.934;2023-01-13T02:05:15;100184.59;;;14.11;85.94
75359;BME280;64046;51.978;5.934;2023-01-13T02:07:47;100179.72;;;14.05;86.10
75359;BME280;64046;51.978;5.934;2023-01-13T02:10:18;100178.25;;;14.01;86.31
75359;BME280;64046;51.978;5.934;2023-01-13T02:12:49;100179.31;;;13.98;86.21
75359;BME280;64046;51.978;5.934;2023-01-13T02:15:21;100183.50;;;14.01;85.89
75359;BME280;64046;51.978;5.934;2023-01-13T02:18:12;100186.47;;;14.09;84.92
75359;BME280;64046;51.978;5.934;2023-01-13T02:24:05;100197.94;;;13.95;85.16
75359;BME280;64046;51.978;5.934;2023-01-13T02:27:30;100188.78;;;14.01;84.82
75359;BME280;64046;51.978;5.934;2023-01-13T02:30:14;100192.78;;;13.94;85.73
75359;BME280;64046;51.978;5.934;2023-01-13T02:33:05;100193.22;;;13.88;86.14
75359;BME280;64046;51.978;5.934;2023-01-13T02:35:41;100196.06;;;13.84;86.53
75359;BME280;64046;51.978;5.934;2023-01-13T02:38:18;100187.31;;;13.84;86.03
75359;BME280;64046;51.978;5.934;2023-01-13T02:40:52;100192.06;;;13.79;86.64
75359;BME280;64046;51.978;5.934;2023-01-13T02:43:27;100195.41;;;13.81;86.70
75359;BME280;64046;51.978;5.934;2023-01-13T02:46:16;100191.72;;;13.83;86.20
75359;BME280;64046;51.978;5.934;2023-01-13T02:48:50;100179.09;;;13.76;86.94
75359;BME280;64046;51.978;5.934;2023-01-13T02:51:23;100183.41;;;13.77;86.74
75359;BME280;64046;51.978;5.934;2023-01-13T02:53:57;100177.09;;;13.79;86.42
75359;BME280;64046;51.978;5.934;2023-01-13T02:56:30;100173.94;;;13.74;86.36
75359;BME280;64046;51.978;5.934;2023-01-13T02:59:00;100170.03;;;13.67;85.76
75359;BME280;64046;51.978;5.934;2023-01-13T03:01:32;100159.81;;;13.75;85.41
75359;BME280;64046;51.978;5.934;2023-01-13T03:04:10;100150.03;;;13.77;84.64
75359;BME280;64046;51.978;5.934;2023-01-13T03:06:47;100143.28;;;13.73;84.71
75359;BME280;64046;51.978;5.934;2023-01-13T03:09:26;100158.53;;;13.68;84.52
75359;BME280;64046;51.978;5.934;2023-01-13T03:12:03;100149.09;;;13.65;84.18
75359;BME280;64046;51.978;5.934;2023-01-13T03:14:40;100149.09;;;13.65;83.96
75359;BME280;64046;51.978;5.934;2023-01-13T03:17:23;100144.22;;;13.72;83.05
75359;BME280;64046;51.978;5.934;2023-01-13T03:19:59;100145.47;;;13.66;83.39
75359;BME280;64046;51.978;5.934;2023-01-13T03:22:36;100149.91;;;13.66;82.96
75359;BME280;64046;51.978;5.934;2023-01-13T03:25:12;100147.19;;;13.67;82.74
75359;BME280;64046;51.978;5.934;2023-01-13T03:27:47;100149.09;;;13.65;82.27
75359;BME280;64046;51.978;5.934;2023-01-13T03:30:22;100152.09;;;13.59;82.35
75359;BME280;64046;51.978;5.934;2023-01-13T03:32:58;100139.81;;;13.60;81.79
75359;BME280;64046;51.978;5.934;2023-01-13T03:35:31;100141.28;;;13.51;82.05
75359;BME280;64046;51.978;5.934;2023-01-13T03:38:05;100138.66;;;13.51;81.84
75359;BME280;64046;51.978;5.934;2023-01-13T03:40:39;100135.81;;;13.54;81.68
75359;BME280;64046;51.978;5.934;2023-01-13T03:43:15;100127.81;;;13.56;81.78
75359;BME280;64046;51.978;5.934;2023-01-13T03:46:02;100133.06;;;13.56;81.76
75359;BME280;64046;51.978;5.934;2023-01-13T03:48:36;100140.00;;;13.57;81.77
75359;BME280;64046;51.978;5.934;2023-01-13T03:51:10;100128.00;;;13.53;81.87
75359;BME280;64046;51.978;5.934;2023-01-13T03:53:46;100137.06;;;13.61;81.97
75359;BME280;64046;51.978;5.934;2023-01-13T03:56:21;100130.66;;;13.65;81.87
75359;BME280;64046;51.978;5.934;2023-01-13T03:58:53;100137.56;;;13.54;82.14
75359;BME280;64046;51.978;5.934;2023-01-13T04:01:25;100129.78;;;13.65;81.93
75359;BME280;64046;51.978;5.934;2023-01-13T04:04:00;100129.56;;;13.68;81.80
75359;BME280;64046;51.978;5.934;2023-01-13T04:06:35;100133.78;;;13.71;81.95
75359;BME280;64046;51.978;5.934;2023-01-13T04:09:13;100141.25;;;13.77;81.59
75359;BME280;64046;51.978;5.934;2023-01-13T04:11:50;100137.06;;;13.74;81.73
75359;BME280;64046;51.978;5.934;2023-01-13T04:14:23;100136.09;;;13.62;82.48
75359;BME280;64046;51.978;5.934;2023-01-13T04:16:55;100144.09;;;13.61;82.58
75359;BME280;64046;51.978;5.934;2023-01-13T04:19:27;100133.91;;;13.69;82.29
75359;BME280;64046;51.978;5.934;2023-01-13T04:21:56;100150.31;;;13.47;82.65
75359;BME280;64046;51.978;5.934;2023-01-13T04:24:25;100142.72;;;13.42;82.65
75359;BME280;64046;51.978;5.934;2023-01-13T04:26:55;100142.00;;;13.40;82.58
75359;BME280;64046;51.978;5.934;2023-01-13T04:29:24;100145.66;;;13.38;82.87
75359;BME280;64046;51.978;5.934;2023-01-13T04:31:53;100147.34;;;13.39;82.76
75359;BME280;64046;51.978;5.934;2023-01-13T04:34:22;100139.84;;;13.32;82.54
75359;BME280;64046;51.978;5.934;2023-01-13T04:36:54;100152.00;;;13.48;82.51
75359;BME280;64046;51.978;5.934;2023-01-13T04:39:23;100142.56;;;13.31;82.16
75359;BME280;64046;51.978;5.934;2023-01-13T04:41:52;100140.78;;;13.31;81.27
75359;BME280;64046;51.978;5.934;2023-01-13T04:44:28;100146.53;;;13.38;80.71
75359;BME280;64046;51.978;5.934;2023-01-13T04:47:00;100139.00;;;13.32;79.97
75359;BME280;64046;51.978;5.934;2023-01-13T04:49:29;100138.47;;;13.27;79.47
75359;BME280;64046;51.978;5.934;2023-01-13T04:52:01;100142.81;;;13.41;78.45
75359;BME280;64046;51.978;5.934;2023-01-13T04:54:32;100143.19;;;13.22;77.59
75359;BME280;64046;51.978;5.934;2023-01-13T04:57:01;100140.75;;;13.19;76.92
75359;BME280;64046;51.978;5.934;2023-01-13T04:59:30;100150.44;;;13.18;75.84
75359;BME280;64046;51.978;5.934;2023-01-13T05:01:59;100147.91;;;13.16;75.22
75359;BME280;64046;51.978;5.934;2023-01-13T05:04:28;100155.16;;;13.13;74.51
75359;BME280;64046;51.978;5.934;2023-01-13T05:06:57;100155.16;;;13.13;74.13
75359;BME280;64046;51.978;5.934;2023-01-13T05:09:29;100162.56;;;13.33;73.64
75359;BME280;64046;51.978;5.934;2023-01-13T05:11:58;100168.94;;;13.16;73.41
75359;BME280;64046;51.978;5.934;2023-01-13T05:14:40;100168.53;;;13.10;73.29
75359;BME280;64046;51.978;5.934;2023-01-13T05:17:22;100150.25;;;13.21;73.55
75359;BME280;64046;51.978;5.934;2023-01-13T05:19:52;100152.84;;;13.08;73.48
75359;BME280;64046;51.978;5.934;2023-01-13T05:22:22;100151.03;;;13.09;73.33
75359;BME280;64046;51.978;5.934;2023-01-13T05:25:07;100143.72;;;13.27;73.24
75359;BME280;64046;51.978;5.934;2023-01-13T05:27:54;100146.13;;;13.17;73.75
75359;BME280;64046;51.978;5.934;2023-01-13T05:30:25;100143.19;;;13.22;73.96
75359;BME280;64046;51.978;5.934;2023-01-13T05:32:55;100140.31;;;13.12;74.29
75359;BME280;64046;51.978;5.934;2023-01-13T05:35:24;100133.56;;;13.08;74.91
75359;BME280;64046;51.978;5.934;2023-01-13T05:37:55;100142.84;;;13.13;75.37
75359;BME280;64046;51.978;5.934;2023-01-13T05:40:26;100139.84;;;13.32;75.62
75359;BME280;64046;51.978;5.934;2023-01-13T05:43:09;100139.41;;;13.26;76.01
75359;BME280;64046;51.978;5.934;2023-01-13T05:45:52;100135.03;;;13.39;76.11
75359;BME280;64046;51.978;5.934;2023-01-13T05:48:25;100143.25;;;13.35;76.52
75359;BME280;64046;51.978;5.934;2023-01-13T05:50:55;100145.50;;;13.26;77.03
75359;BME280;64046;51.978;5.934;2023-01-13T05:53:25;100149.00;;;13.27;77.68
75359;BME280;64046;51.978;5.934;2023-01-13T05:55:57;100141.25;;;13.38;77.97
75359;BME280;64046;51.978;5.934;2023-01-13T05:58:26;100151.63;;;13.27;78.86
75359;BME280;64046;51.978;5.934;2023-01-13T06:00:58;100155.53;;;13.34;79.09
75359;BME280;64046;51.978;5.934;2023-01-13T06:03:27;100141.91;;;13.14;79.62
75359;BME280;64046;51.978;5.934;2023-01-13T06:05:57;100144.63;;;13.13;79.88
75359;BME280;64046;51.978;5.934;2023-01-13T06:08:27;100141.78;;;13.16;79.81
75359;BME280;64046;51.978;5.934;2023-01-13T06:10:59;100136.66;;;13.27;79.34
75359;BME280;64046;51.978;5.934;2023-01-13T06:13:28;100149.44;;;13.06;79.78
75359;BME280;64046;51.978;5.934;2023-01-13T06:15:58;100149.78;;;13.14;79.70
75359;BME280;64046;51.978;5.934;2023-01-13T06:18:27;100162.59;;;13.06;79.52
75359;BME280;64046;51.978;5.934;2023-01-13T06:20:59;100161.22;;;13.01;79.47
75359;BME280;64046;51.978;5.934;2023-01-13T06:23:29;100167.59;;;12.96;79.68
75359;BME280;64046;51.978;5.934;2023-01-13T06:26:08;100171.41;;;13.20;78.87
75359;BME280;64046;51.978;5.934;2023-01-13T06:28:40;100170.34;;;12.95;79.64
75359;BME280;64046;51.978;5.934;2023-01-13T06:31:10;100162.91;;;13.02;79.60
75359;BME280;64046;51.978;5.934;2023-01-13T06:33:42;100160.84;;;13.07;79.44
75359;BME280;64046;51.978;5.934;2023-01-13T06:36:14;100167.22;;;13.03;79.89
75359;BME280;64046;51.978;5.934;2023-01-13T06:38:46;100172.69;;;13.00;80.03
75359;BME280;64046;51.978;5.934;2023-01-13T06:41:20;100163.75;;;13.02;79.96
75359;BME280;64046;51.978;5.934;2023-01-13T06:44:09;100167.56;;;12.84;80.39
75359;BME280;64046;51.978;5.934;2023-01-13T06:46:36;100160.53;;;12.84;80.54
75359;BME280;64046;51.978;5.934;2023-01-13T06:49:05;100165.78;;;12.84;80.54
75359;BME280;64046;51.978;5.934;2023-01-13T06:51:34;100163.47;;;12.79;80.77
75359;BME280;64046;51.978;5.934;2023-01-13T06:54:04;100174.47;;;12.99;79.87
75359;BME280;64046;51.978;5.934;2023-01-13T06:56:36;100175.44;;;13.11;79.52
75359;BME280;64046;51.978;5.934;2023-01-13T06:59:05;100172.97;;;12.95;79.69
75359;BME280;64046;51.978;5.934;2023-01-13T07:01:34;100178.34;;;12.93;79.44
75359;BME280;64046;51.978;5.934;2023-01-13T07:04:04;100178.03;;;12.98;79.45
75359;BME280;64046;51.978;5.934;2023-01-13T07:06:33;100179.19;;;12.94;79.46
75359;BME280;64046;51.978;5.934;2023-01-13T07:09:02;100186.97;;;12.95;79.37
75359;BME280;64046;51.978;5.934;2023-01-13T07:11:31;100191.56;;;12.92;79.47
75359;BME280;64046;51.978;5.934;2023-01-13T07:14:03;100184.19;;;13.11;79.14
75359;BME280;64046;51.978;5.934;2023-01-13T07:16:44;100187.91;;;12.94;79.26
75359;BME280;64046;51.978;5.934;2023-01-13T07:19:14;100184.34;;;12.95;78.86
75359;BME280;64046;51.978;5.934;2023-01-13T07:21:48;100184.97;;;12.99;78.91
75359;BME280;64046;51.978;5.934;2023-01-13T07:24:18;100186.47;;;13.03;78.51
75359;BME280;64046;51.978;5.934;2023-01-13T07:26:49;100199.03;;;13.12;78.33
75359;BME280;64046;51.978;5.934;2023-01-13T07:29:21;100196.22;;;13.15;77.87
75359;BME280;64046;51.978;5.934;2023-01-13T07:31:50;100196.44;;;12.98;77.83
75359;BME280;64046;51.978;5.934;2023-01-13T07:34:19;100193.81;;;12.98;77.50
75359;BME280;64046;51.978;5.934;2023-01-13T07:36:48;100190.25;;;12.99;77.52
75359;BME280;64046;51.978;5.934;2023-01-13T07:39:17;100188.38;;;13.01;77.78
75359;BME280;64046;51.978;5.934;2023-01-13T07:41:46;100195.28;;;13.02;77.38
75359;BME280;64046;51.978;5.934;2023-01-13T07:44:31;100188.00;;;13.20;76.73
75359;BME280;64046;51.978;5.934;2023-01-13T07:47:00;100196.44;;;12.98;77.08
75359;BME280;64046;51.978;5.934;2023-01-13T07:49:31;100193.91;;;12.96;77.16
75359;BME280;64046;51.978;5.934;2023-01-13T07:52:00;100201.69;;;12.98;77.16
75359;BME280;64046;51.978;5.934;2023-01-13T07:54:29;100189.50;;;12.97;77.08
75359;BME280;64046;51.978;5.934;2023-01-13T07:56:58;100191.00;;;13.01;76.78
75359;BME280;64046;51.978;5.934;2023-01-13T07:59:28;100200.47;;;13.04;76.44
75359;BME280;64046;51.978;5.934;2023-01-13T08:01:59;100199.47;;;13.19;76.02
75359;BME280;64046;51.978;5.934;2023-01-13T08:04:29;100205.91;;;13.01;75.79
75359;BME280;64046;51.978;5.934;2023-01-13T08:06:58;100199.72;;;13.02;75.88
75359;BME280;64046;51.978;5.934;2023-01-13T08:09:27;100204.78;;;13.05;75.73
75359;BME280;64046;51.978;5.934;2023-01-13T08:11:56;100218.88;;;13.04;75.76
75359;BME280;64046;51.978;5.934;2023-01-13T08:14:37;100216.16;;;13.05;75.28
75359;BME280;64046;51.978;5.934;2023-01-13T08:17:09;100220.97;;;13.26;75.08
75359;BME280;64046;51.978;5.934;2023-01-13T08:19:38;100224.69;;;13.09;75.11
75359;BME280;64046;51.978;5.934;2023-01-13T08:22:08;100215.75;;;13.11;75.09
75359;BME280;64046;51.978;5.934;2023-01-13T08:24:37;100224.47;;;13.12;75.08
75359;BME280;64046;51.978;5.934;2023-01-13T08:27:06;100234.06;;;13.13;74.94
75359;BME280;64046;51.978;5.934;2023-01-13T08:29:35;100229.94;;;13.09;75.22
75359;BME280;64046;51.978;5.934;2023-01-13T08:32:05;100227.69;;;13.17;75.19
75359;BME280;64046;51.978;5.934;2023-01-13T08:34:37;100220.03;;;13.27;74.51
75359;BME280;64046;51.978;5.934;2023-01-13T08:37:06;100224.06;;;13.05;74.86
75359;BME280;64046;51.978;5.934;2023-01-13T08:39:35;100226.59;;;13.07;74.89
75359;BME280;64046;51.978;5.934;2023-01-13T08:42:04;100227.41;;;13.07;74.69
75359;BME280;64046;51.978;5.934;2023-01-13T08:44:34;100235.09;;;13.10;74.19
75359;BME280;64046;51.978;5.934;2023-01-13T08:47:03;100234.69;;;13.16;74.26
75359;BME280;64046;51.978;5.934;2023-01-13T08:49:32;100229.44;;;13.16;74.13
75359;BME280;64046;51.978;5.934;2023-01-13T08:52:04;100237.66;;;13.39;73.65
75359;BME280;64046;51.978;5.934;2023-01-13T08:54:33;100223.81;;;13.23;73.67
75359;BME280;64046;51.978;5.934;2023-01-13T08:57:02;100235.06;;;13.25;73.79
75359;BME280;64046;51.978;5.934;2023-01-13T08:59:32;100240.22;;;13.26;73.65
75359;BME280;64046;51.978;5.934;2023-01-13T09:02:01;100234.22;;;13.24;73.47
75359;BME280;64046;51.978;5.934;2023-01-13T09:04:30;100249.25;;;13.22;73.25
75359;BME280;64046;51.978;5.934;2023-01-13T09:06:59;100245.22;;;13.16;73.50
75359;BME280;64046;51.978;5.934;2023-01-13T09:09:31;100246.78;;;13.33;73.91
75359;BME280;64046;51.978;5.934;2023-01-13T09:12:01;100256.63;;;13.17;74.49
75359;BME280;64046;51.978;5.934;2023-01-13T09:14:42;100257.53;;;13.16;75.15
75359;BME280;64046;51.978;5.934;2023-01-13T09:17:11;100253.41;;;13.12;76.26
75359;BME280;64046;51.978;5.934;2023-01-13T09:19:41;100260.38;;;13.13;76.88
75359;BME280;64046;51.978;5.934;2023-01-13T09:22:13;100261.06;;;13.29;77.25
75359;BME280;64046;51.978;5.934;2023-01-13T09:24:45;100265.88;;;13.37;77.03
75359;BME280;64046;51.978;5.934;2023-01-13T09:27:15;100269.66;;;13.19;76.92
75359;BME280;64046;51.978;5.934;2023-01-13T09:29:44;100270.81;;;13.14;76.79
75359;BME280;64046;51.978;5.934;2023-01-13T09:32:13;100269.16;;;13.26;76.39
75359;BME280;64046;51.978;5.934;2023-01-13T09:34:43;100272.00;;;13.23;76.01
75359;BME280;64046;51.978;5.934;2023-01-13T09:37:25;100268.78;;;13.32;75.70
75359;BME280;64046;51.978;5.934;2023-01-13T09:39:57;100290.00;;;13.44;75.50
75359;BME280;64046;51.978;5.934;2023-01-13T09:42:32;100287.34;;;13.44;75.93
75359;BME280;64046;51.978;5.934;2023-01-13T09:45:21;100283.38;;;13.38;76.38
75359;BME280;64046;51.978;5.934;2023-01-13T09:47:54;100296.31;;;13.41;76.74
75359;BME280;64046;51.978;5.934;2023-01-13T09:50:31;100295.56;;;13.39;76.71
75359;BME280;64046;51.978;5.934;2023-01-13T09:53:04;100308.25;;;13.32;77.65
75359;BME280;64046;51.978;5.934;2023-01-13T09:55:38;100315.28;;;13.32;77.88
75359;BME280;64046;51.978;5.934;2023-01-13T09:58:11;100316.16;;;13.32;78.91
75359;BME280;64046;51.978;5.934;2023-01-13T10:00:44;100310.31;;;13.27;79.87
75359;BME280;64046;51.978;5.934;2023-01-13T10:03:22;100320.56;;;13.32;80.45
75359;BME280;64046;51.978;5.934;2023-01-13T10:05:59;100321.69;;;13.28;81.05
75359;BME280;64046;51.978;5.934;2023-01-13T10:08:32;100321.81;;;13.12;82.48
75359;BME280;64046;51.978;5.934;2023-01-13T10:11:06;100341.72;;;13.16;83.11
75359;BME280;64046;51.978;5.934;2023-01-13T10:13:56;100340.13;;;13.13;83.90
75359;BME280;64046;51.978;5.934;2023-01-13T10:16:32;100340.44;;;13.09;84.72
75359;BME280;64046;51.978;5.934;2023-01-13T10:19:16;100343.16;;;13.07;84.66
75359;BME280;64046;51.978;5.934;2023-01-13T10:22:15;100346.81;;;13.05;85.23
75359;BME280;64046;51.978;5.934;2023-01-13T10:25:07;100337.41;;;13.01;85.75
75359;BME280;64046;51.978;5.934;2023-01-13T10:27:48;100347.41;;;12.95;86.85
75359;BME280;64046;51.978;5.934;2023-01-13T10:30:21;100346.63;;;12.93;86.90
75359;BME280;64046;51.978;5.934;2023-01-13T10:32:54;100345.03;;;12.91;87.32
75359;BME280;64046;51.978;5.934;2023-01-13T10:35:49;100353.28;;;13.13;86.23
75359;BME280;64046;51.978;5.934;2023-01-13T10:38:21;100348.34;;;12.94;87.68
75359;BME280;64046;51.978;5.934;2023-01-13T10:40:51;100358.13;;;12.92;87.79
75359;BME280;64046;51.978;5.934;2023-01-13T10:43:24;100364.59;;;13.01;87.51
75359;BME280;64046;51.978;5.934;2023-01-13T10:46:00;100371.41;;;13.04;87.48
75359;BME280;64046;51.978;5.934;2023-01-13T10:48:38;100368.63;;;13.07;87.50
75359;BME280;64046;51.978;5.934;2023-01-13T10:51:18;100370.56;;;13.18;87.14
75359;BME280;64046;51.978;5.934;2023-01-13T10:53:56;100374.69;;;13.22;87.54
75359;BME280;64046;51.978;5.934;2023-01-13T10:56:28;100371.50;;;13.16;87.80
75359;BME280;64046;51.978;5.934;2023-01-13T10:59:19;100368.31;;;13.40;86.39
75359;BME280;64046;51.978;5.934;2023-01-13T11:01:57;100366.22;;;13.31;87.27
75359;BME280;64046;51.978;5.934;2023-01-13T11:04:29;100371.03;;;13.24;87.67
75359;BME280;64046;51.978;5.934;2023-01-13T11:06:59;100353.09;;;13.16;87.90
75359;BME280;64046;51.978;5.934;2023-01-13T11:09:30;100365.78;;;13.24;88.31
75359;BME280;64046;51.978;5.934;2023-01-13T11:11:59;100373.56;;;13.26;88.14
75359;BME280;64046;51.978;5.934;2023-01-13T11:14:35;100371.75;;;13.55;87.80
75359;BME280;64046;51.978;5.934;2023-01-13T11:17:30;100378.91;;;13.53;87.84
75359;BME280;64046;51.978;5.934;2023-01-13T11:20:06;100392.63;;;13.29;89.97
75359;BME280;64046;51.978;5.934;2023-01-13T11:22:44;100392.38;;;13.20;90.77
75359;BME280;64046;51.978;5.934;2023-01-13T11:25:18;100390.78;;;13.17;91.59
75359;BME280;64046;51.978;5.934;2023-01-13T11:27:53;100393.88;;;13.09;92.46
75359;BME280;64046;51.978;5.934;2023-01-13T11:30:30;100395.56;;;13.10;92.85
75359;BME280;64046;51.978;5.934;2023-01-13T11:33:16;100380.06;;;13.20;92.35
75359;BME280;64046;51.978;5.934;2023-01-13T11:35:52;100395.84;;;13.20;92.47
75359;BME280;64046;51.978;5.934;2023-01-13T11:38:30;100393.78;;;13.25;92.30
75359;BME280;64046;51.978;5.934;2023-01-13T11:41:07;100401.13;;;13.35;91.63
75359;BME280;64046;51.978;5.934;2023-01-13T11:43:46;100394.72;;;13.39;91.56
75359;BME280;64046;51.978;5.934;2023-01-13T11:46:22;100404.97;;;13.43;91.31
75359;BME280;64046;51.978;5.934;2023-01-13T11:48:54;100398.88;;;13.43;91.08
75359;BME280;64046;51.978;5.934;2023-01-13T11:51:32;100408.50;;;13.57;90.13
75359;BME280;64046;51.978;5.934;2023-01-13T11:54:36;100419.09;;;13.70;88.05
75359;BME280;64046;51.978;5.934;2023-01-13T11:57:35;100417.69;;;13.64;88.16
75359;BME280;64046;51.978;5.934;2023-01-13T12:03:25;100424.47;;;13.68;88.19
75359;BME280;64046;51.978;5.934;2023-01-13T12:06:06;100422.78;;;13.67;88.53
75359;BME280;64046;51.978;5.934;2023-01-13T12:11:41;100425.13;;;13.72;88.31
75359;BME280;64046;51.978;5.934;2023-01-13T12:14:36;100437.34;;;13.73;88.09
75359;BME280;64046;51.978;5.934;2023-01-13T12:17:14;100432.75;;;13.62;88.83
75359;BME280;64046;51.978;5.934;2023-01-13T12:19:50;100420.00;;;13.56;89.67
75359;BME280;64046;51.978;5.934;2023-01-13T12:22:22;100427.88;;;13.56;89.34
75359;BME280;64046;51.978;5.934;2023-01-13T12:24:59;100435.03;;;13.54;89.93
75359;BME280;64046;51.978;5.934;2023-01-13T12:27:38;100431.72;;;13.64;89.51
75359;BME280;64046;51.978;5.934;2023-01-13T12:30:19;100443.66;;;13.70;89.33
75359;BME280;64046;51.978;5.934;2023-01-13T12:32:51;100450.44;;;13.60;89.83
75359;BME280;64046;51.978;5.934;2023-01-13T12:35:33;100457.22;;;13.49;90.69
75359;BME280;64046;51.978;5.934;2023-01-13T12:38:10;100447.28;;;13.40;91.53
75359;BME280;64046;51.978;5.934;2023-01-13T12:40:48;100444.53;;;13.42;91.63
75359;BME280;64046;51.978;5.934;2023-01-13T12:43:23;100446.22;;;13.28;91.84
75359;BME280;64046;51.978;5.934;2023-01-13T12:52:14;100467.19;;;13.30;91.78
75359;BME280;64046;51.978;5.934;2023-01-13T12:55:08;100466.72;;;13.38;91.63
75359;BME280;64046;51.978;5.934;2023-01-13T13:00:53;100480.44;;;13.28;92.61
75359;BME280;64046;51.978;5.934;2023-01-13T13:03:32;100474.28;;;13.28;92.68
75359;BME280;64046;51.978;5.934;2023-01-13T13:06:17;100480.13;;;13.33;92.44
75359;BME280;64046;51.978;5.934;2023-01-13T13:08:59;100491.69;;;13.30;92.65
75359;BME280;64046;51.978;5.934;2023-01-13T13:11:40;100493.97;;;13.37;92.42
75359;BME280;64046;51.978;5.934;2023-01-13T13:14:59;100494.34;;;13.45;91.98
75359;BME280;64046;51.978;5.934;2023-01-13T13:17:42;100489.56;;;13.52;91.69
75359;BME280;64046;51.978;5.934;2023-01-13T13:23:26;100495.13;;;13.47;91.26
75359;BME280;64046;51.978;5.934;2023-01-13T13:26:09;100497.84;;;13.45;91.25
75359;BME280;64046;51.978;5.934;2023-01-13T13:28:51;100502.25;;;13.45;91.24
75359;BME280;64046;51.978;5.934;2023-01-13T13:31:33;100514.19;;;13.50;89.64
75359;BME280;64046;51.978;5.934;2023-01-13T13:34:13;100520.31;;;13.51;89.11
75359;BME280;64046;51.978;5.934;2023-01-13T13:37:05;100525.84;;;13.61;88.13
75359;BME280;64046;51.978;5.934;2023-01-13T13:39:40;100535.91;;;13.54;88.68
75359;BME280;64046;51.978;5.934;2023-01-13T13:42:26;100531.88;;;13.63;87.63
75359;BME280;64046;51.978;5.934;2023-01-13T13:45:15;100527.91;;;13.70;86.80
75359;BME280;64046;51.978;5.934;2023-01-13T13:47:57;100536.47;;;13.45;86.10
75359;BME280;64046;51.978;5.934;2023-01-13T13:50:28;100546.16;;;13.44;85.79